createdAt,value
2018-09-04T00:02:07.893Z,50.30
2018-09-04T00:04:36.733Z,58.83
2018-09-04T00:07:06.321Z,55.80
2018-09-04T00:09:36.715Z,59.73
2018-09-04T00:12:05.546Z,58.80
2018-09-04T00:14:35.296Z,52.33
2018-09-04T00:17:04.341Z,58.13
2018-09-04T00:19:33.906Z,58.73
2018-09-04T00:22:02.416Z,59.23
2018-09-04T00:24:30.859Z,56.87
2018-09-04T00:26:59.358Z,63.33
2018-09-04T00:29:28.936Z,61.73
2018-09-04T00:31:58.353Z,57.83
2018-09-04T00:34:26.965Z,58.30
2018-09-04T00:36:55.682Z,59.40
2018-09-04T00:39:24.152Z,58.83
2018-09-04T00:41:52.643Z,61.57
2018-09-04T00:44:21.340Z,58.17
2018-09-04T00:46:50.185Z,57.63
2018-09-04T00:49:19.078Z,53.40
2018-09-04T00:51:49.823Z,55.73
2018-09-04T00:54:18.273Z,53.23
2018-09-04T00:56:46.769Z,51.20
2018-09-04T00:59:15.622Z,49.70
2018-09-04T01:01:45.124Z,49.30
2018-09-04T01:04:14.671Z,52.53
2018-09-04T01:06:43.405Z,52.40
2018-09-04T01:09:16.785Z,50.77
2018-09-04T01:11:45.518Z,52.67
2018-09-04T01:14:14.525Z,61.87
2018-09-04T01:16:43.937Z,62.47
2018-09-04T01:19:13.457Z,63.53
2018-09-04T01:21:43.156Z,56.20
2018-09-04T01:24:12.284Z,60.00
2018-09-04T01:26:40.772Z,54.67
2018-09-04T01:29:09.633Z,48.23
2018-09-04T01:31:38.122Z,49.33
2018-09-04T01:34:06.621Z,47.63
2018-09-04T01:36:35.348Z,43.13
2018-09-04T01:39:04.424Z,78.90
2018-09-04T01:41:33.359Z,73.30
2018-09-04T01:44:01.839Z,214.03
2018-09-04T01:46:30.365Z,147.53
2018-09-04T01:48:58.839Z,226.27
2018-09-04T01:51:28.710Z,147.90
2018-09-04T01:53:57.186Z,81.27
2018-09-04T01:56:25.669Z,114.47
2018-09-04T01:58:55.333Z,37.50
2018-09-04T02:01:23.850Z,53.67
2018-09-04T02:03:52.620Z,52.97
2018-09-04T02:06:21.387Z,58.20
2018-09-04T02:08:50.160Z,56.47
2018-09-04T02:11:19.309Z,61.37
2018-09-04T02:13:47.801Z,61.30
2018-09-04T02:16:16.903Z,53.10
2018-09-04T02:18:45.695Z,51.50
2018-09-04T02:21:14.177Z,53.73
2018-09-04T02:23:42.641Z,52.13
2018-09-04T02:26:11.093Z,50.80
2018-09-04T02:28:40.158Z,53.40
2018-09-04T02:31:08.645Z,49.70
2018-09-04T02:33:37.384Z,56.20
2018-09-04T02:36:06.202Z,49.03
2018-09-04T02:38:34.708Z,51.77
2018-09-04T02:41:03.818Z,49.60
2018-09-04T02:43:33.665Z,52.30
2018-09-04T02:46:02.502Z,47.90
2018-09-04T02:48:31.515Z,50.67
2018-09-04T02:51:00.670Z,47.70
2018-09-04T02:53:30.440Z,50.73
2018-09-04T02:55:58.952Z,50.37
2018-09-04T02:58:27.653Z,55.37
2018-09-04T03:00:57.569Z,136.83
2018-09-04T03:03:26.083Z,69.07
2018-09-04T03:05:55.446Z,54.67
2018-09-04T03:08:24.042Z,59.60
2018-09-04T03:10:52.735Z,56.37
2018-09-04T03:13:21.632Z,54.03
2018-09-04T03:15:50.153Z,56.40
2018-09-04T03:18:20.205Z,55.50
2018-09-04T03:20:50.184Z,47.67
2018-09-04T03:23:18.909Z,48.17
2018-09-04T03:25:48.141Z,44.70
2018-09-04T03:28:17.229Z,51.70
2018-09-04T03:30:46.726Z,52.30
2018-09-04T03:33:15.612Z,53.97
2018-09-04T03:35:45.070Z,40.23
2018-09-04T03:38:13.761Z,42.70
2018-09-04T03:40:43.049Z,40.67
2018-09-04T03:43:11.628Z,43.60
2018-09-04T03:45:40.124Z,34.43
2018-09-04T03:48:09.356Z,83.40
2018-09-04T03:50:39.545Z,48.53
2018-09-04T03:53:08.538Z,84.97
2018-09-04T03:55:37.060Z,72.33
2018-09-04T03:58:05.685Z,157.90
2018-09-04T04:00:34.156Z,96.87
2018-09-04T04:03:03.595Z,77.03
2018-09-04T04:05:32.601Z,66.77
2018-09-04T04:08:01.968Z,53.77
2018-09-04T04:10:31.038Z,57.23
2018-09-04T04:12:59.590Z,48.97
2018-09-04T04:15:30.640Z,53.47
2018-09-04T04:17:59.243Z,57.20
2018-09-04T04:20:28.146Z,57.87
2018-09-04T04:22:57.546Z,51.80
2018-09-04T04:25:26.065Z,56.87
2018-09-04T04:27:54.997Z,57.27
2018-09-04T04:30:23.467Z,63.97
2018-09-04T04:32:52.673Z,58.20
2018-09-04T04:35:21.360Z,63.00
2018-09-04T04:37:50.161Z,61.03
2018-09-04T04:40:18.851Z,61.83
2018-09-04T04:42:47.561Z,60.17
2018-09-04T04:45:16.452Z,72.93
2018-09-04T04:47:48.038Z,95.47
2018-09-04T04:50:18.573Z,81.07
2018-09-04T04:52:47.088Z,70.07
2018-09-04T04:55:16.903Z,82.63
2018-09-04T04:57:46.012Z,69.93
2018-09-04T05:00:14.587Z,69.30
2018-09-04T05:02:45.104Z,68.93
2018-09-04T05:05:13.578Z,74.83
2018-09-04T05:07:43.241Z,77.57
2018-09-04T05:10:11.763Z,83.13
2018-09-04T05:12:40.664Z,77.57
2018-09-04T05:15:09.833Z,92.23
2018-09-04T05:17:38.313Z,107.53
2018-09-04T05:20:09.182Z,82.00
2018-09-04T05:22:37.704Z,94.73
2018-09-04T05:25:06.446Z,83.33
2018-09-04T05:27:34.926Z,89.07
2018-09-04T05:30:03.926Z,104.50
2018-09-04T05:32:37.133Z,87.70
2018-09-04T05:35:06.098Z,71.03
2018-09-04T05:37:34.819Z,78.10
2018-09-04T05:40:03.297Z,68.03
2018-09-04T05:42:42.896Z,72.27
2018-09-04T05:45:11.461Z,90.17
2018-09-04T05:47:41.257Z,75.60
2018-09-04T05:50:10.685Z,80.60
2018-09-04T05:52:39.800Z,74.73
2018-09-04T05:55:08.689Z,67.57
2018-09-04T05:57:37.570Z,65.77
2018-09-04T06:00:10.553Z,62.30
2018-09-04T06:02:40.085Z,83.10
2018-09-04T06:05:09.108Z,72.77
2018-09-04T06:07:37.947Z,89.40
2018-09-04T06:10:06.829Z,103.23
2018-09-04T06:12:35.739Z,88.50
2018-09-04T06:15:04.932Z,85.03
2018-09-04T06:17:33.447Z,79.70
2018-09-04T06:20:02.679Z,83.73
2018-09-04T06:22:32.270Z,92.40
2018-09-04T06:25:00.767Z,95.00
2018-09-04T06:27:29.300Z,86.73
2018-09-04T06:29:58.221Z,92.83
2018-09-04T06:32:27.785Z,87.03
2018-09-04T06:34:56.292Z,85.67
2018-09-04T06:37:25.082Z,74.57
2018-09-04T06:39:54.300Z,70.93
2018-09-04T06:42:24.223Z,77.40
2018-09-04T06:44:52.710Z,70.43
2018-09-04T06:47:21.548Z,75.13
2018-09-04T06:49:50.610Z,82.50
2018-09-04T06:52:19.072Z,76.80
2018-09-04T06:54:47.864Z,81.43
2018-09-04T06:57:16.551Z,77.80
2018-09-04T06:59:46.224Z,75.27
2018-09-04T07:02:15.029Z,70.90
2018-09-04T07:04:43.826Z,74.20
2018-09-04T07:07:12.306Z,66.73
2018-09-04T07:09:40.769Z,68.30
2018-09-04T07:12:09.543Z,76.10
2018-09-04T07:14:38.631Z,66.87
2018-09-04T07:17:07.181Z,68.50
2018-09-04T07:19:36.048Z,66.73
2018-09-04T07:22:05.307Z,65.60
2018-09-04T07:24:35.171Z,60.40
2018-09-04T07:27:04.567Z,60.50
2018-09-04T07:29:33.064Z,61.40
2018-09-04T07:32:01.721Z,59.93
2018-09-04T07:34:30.656Z,60.47
2018-09-04T07:37:00.025Z,60.97
2018-09-04T07:39:28.546Z,60.77
2018-09-04T07:41:57.100Z,60.30
2018-09-04T07:44:26.833Z,60.83
2018-09-04T07:46:56.464Z,56.90
2018-09-04T07:49:24.937Z,54.87
2018-09-04T07:51:53.417Z,62.23
2018-09-04T07:54:22.204Z,60.33
2018-09-04T07:56:51.702Z,55.37
2018-09-04T07:59:21.513Z,54.63
2018-09-04T08:01:50.262Z,56.50
2018-09-04T08:04:18.738Z,62.93
2018-09-04T08:06:48.496Z,65.17
2018-09-04T08:09:17.207Z,57.30
2018-09-04T08:11:46.319Z,57.03
2018-09-04T08:14:15.499Z,52.30
2018-09-04T08:16:45.807Z,50.50
2018-09-04T08:19:14.660Z,51.73
2018-09-04T08:21:43.156Z,48.93
2018-09-04T08:24:12.155Z,49.80
2018-09-04T08:26:41.237Z,44.73
2018-09-04T08:29:09.722Z,46.37
2018-09-04T08:31:38.229Z,51.20
2018-09-04T08:34:06.695Z,48.10
2018-09-04T08:36:35.176Z,49.93
2018-09-04T08:39:05.017Z,49.43
2018-09-04T08:41:33.902Z,45.87
2018-09-04T08:44:02.517Z,48.80
2018-09-04T08:46:31.073Z,48.90
2018-09-04T08:49:00.451Z,45.47
2018-09-04T08:51:28.942Z,44.37
2018-09-04T08:53:57.415Z,43.30
2018-09-04T08:56:25.900Z,49.37
2018-09-04T08:58:54.452Z,47.57
2018-09-04T09:01:22.932Z,48.17
2018-09-04T09:03:52.111Z,46.70
2018-09-04T09:06:20.835Z,48.17
2018-09-04T09:08:49.638Z,45.07
2018-09-04T09:11:18.123Z,44.70
2018-09-04T09:13:46.756Z,44.93
2018-09-04T09:16:16.066Z,46.20
2018-09-04T09:18:44.563Z,42.43
2018-09-04T09:21:14.143Z,39.87
2018-09-04T09:23:42.850Z,39.40
2018-09-04T09:26:11.350Z,37.63
2018-09-04T09:28:39.816Z,38.80
2018-09-04T09:31:08.599Z,42.20
2018-09-04T09:33:37.386Z,40.83
2018-09-04T09:36:06.273Z,37.73
2018-09-04T09:38:34.820Z,42.93
2018-09-04T09:41:04.178Z,39.47
2018-09-04T09:43:32.713Z,39.37
2018-09-04T09:46:01.551Z,41.80
2018-09-04T09:48:35.494Z,42.50
2018-09-04T09:51:04.007Z,39.37
2018-09-04T09:53:32.646Z,40.03
2018-09-04T09:56:01.372Z,44.13
2018-09-04T09:58:29.809Z,41.93
2018-09-04T10:01:03.970Z,43.17
2018-09-04T10:03:37.546Z,38.93
2018-09-04T10:06:06.053Z,38.60
2018-09-04T10:08:34.526Z,37.17
2018-09-04T10:11:03.515Z,40.60
2018-09-04T10:13:32.305Z,40.73
2018-09-04T10:16:00.151Z,40.07
2018-09-04T10:18:28.879Z,38.83
2018-09-04T10:20:58.532Z,34.40
2018-09-04T10:23:27.067Z,34.67
2018-09-04T10:25:55.617Z,37.17
2018-09-04T10:28:24.572Z,36.13
2018-09-04T10:30:53.546Z,34.73
2018-09-04T10:33:22.087Z,34.53
2018-09-04T10:35:51.372Z,35.70
2018-09-04T10:38:23.175Z,34.03
2018-09-04T10:40:52.617Z,34.40
2018-09-04T10:43:22.024Z,33.03
2018-09-04T10:45:56.397Z,34.33
2018-09-04T10:48:25.542Z,31.73
2018-09-04T10:50:54.072Z,31.50
2018-09-04T10:53:22.993Z,31.67
2018-09-04T10:55:51.534Z,29.47
2018-09-04T10:58:20.773Z,27.30
2018-09-04T11:00:49.537Z,27.83
2018-09-04T11:03:18.481Z,30.50
2018-09-04T11:05:47.040Z,29.67
2018-09-04T11:08:15.859Z,30.27
2018-09-04T11:10:44.393Z,30.50
2018-09-04T11:13:14.736Z,28.80
2018-09-04T11:15:43.564Z,28.77
2018-09-04T11:18:13.942Z,25.00
2018-09-04T11:20:42.429Z,26.23
2018-09-04T11:23:11.278Z,26.20
2018-09-04T11:25:40.077Z,27.17
2018-09-04T11:28:08.825Z,25.13
2018-09-04T11:30:38.437Z,25.80
2018-09-04T11:33:07.249Z,27.90
2018-09-04T11:35:35.773Z,26.50
2018-09-04T11:38:04.327Z,23.80
2018-09-04T11:40:33.323Z,22.97
2018-09-04T11:43:03.482Z,24.33
2018-09-04T11:45:31.962Z,22.83
2018-09-04T11:48:00.896Z,22.77
2018-09-04T11:50:29.410Z,25.10
2018-09-04T11:52:57.903Z,24.80
2018-09-04T11:55:26.853Z,22.87
2018-09-04T11:57:55.718Z,23.57
2018-09-04T12:00:28.776Z,22.40
2018-09-04T12:02:58.847Z,23.87
2018-09-04T12:05:29.495Z,23.03
2018-09-04T12:07:57.976Z,19.07
2018-09-04T12:10:26.420Z,20.20
2018-09-04T12:12:55.496Z,19.90
2018-09-04T12:15:24.739Z,19.10
2018-09-04T12:17:53.270Z,18.90
2018-09-04T12:20:29.485Z,21.00
2018-09-04T12:22:58.323Z,19.13
2018-09-04T12:25:27.269Z,19.00
2018-09-04T12:27:56.361Z,21.57
2018-09-04T12:30:24.993Z,19.57
2018-09-04T12:32:53.759Z,19.37
2018-09-04T12:35:22.321Z,21.73
2018-09-04T12:37:51.140Z,18.07
2018-09-04T12:40:19.816Z,17.87
2018-09-04T12:42:48.353Z,16.27
2018-09-04T12:45:16.829Z,17.53
2018-09-04T12:47:46.124Z,19.40
2018-09-04T12:50:14.591Z,18.30
2018-09-04T12:52:43.091Z,20.73
2018-09-04T12:55:11.615Z,17.70
2018-09-04T12:57:40.151Z,20.20
2018-09-04T13:00:08.980Z,18.87
2018-09-04T13:02:37.852Z,19.97
2018-09-04T13:05:07.476Z,18.53
2018-09-04T13:07:36.809Z,18.13
2018-09-04T13:10:05.399Z,15.67
2018-09-04T13:12:33.923Z,15.93
2018-09-04T13:15:03.518Z,16.80
2018-09-04T13:17:32.002Z,17.10
2018-09-04T13:20:00.542Z,15.90
2018-09-04T13:22:29.278Z,14.93
2018-09-04T13:24:57.807Z,15.93
2018-09-04T13:27:26.294Z,15.33
2018-09-04T13:29:55.165Z,16.17
2018-09-04T13:32:24.589Z,15.57
2018-09-04T13:34:53.877Z,15.13
2018-09-04T13:37:23.901Z,15.20
2018-09-04T13:40:02.374Z,15.57
2018-09-04T13:42:32.090Z,15.40
2018-09-04T13:45:01.709Z,15.73
2018-09-04T13:47:31.747Z,17.57
2018-09-04T13:50:00.328Z,14.70
2018-09-04T13:52:30.469Z,13.97
2018-09-04T13:54:59.541Z,14.33
2018-09-04T13:57:28.666Z,16.97
2018-09-04T13:59:57.460Z,14.73
2018-09-04T14:02:26.751Z,14.13
2018-09-04T14:04:55.265Z,13.53
2018-09-04T14:07:24.049Z,12.93
2018-09-04T14:09:52.730Z,13.53
2018-09-04T14:12:21.621Z,23.53
2018-09-04T14:14:50.984Z,25.73
2018-09-04T14:17:20.790Z,22.17
2018-09-04T14:19:50.030Z,20.77
2018-09-04T14:22:18.543Z,20.77
2018-09-04T14:25:29.576Z,23.57
2018-09-04T14:27:58.019Z,19.13
2018-09-04T14:30:26.809Z,18.47
2018-09-04T14:32:55.749Z,22.73
2018-09-04T14:35:24.633Z,16.70
2018-09-04T14:37:53.582Z,14.50
2018-09-04T14:40:22.099Z,15.33
2018-09-04T14:42:51.538Z,13.13
2018-09-04T14:45:20.058Z,14.80
2018-09-04T14:47:48.958Z,13.00
2018-09-04T14:50:17.670Z,13.33
2018-09-04T14:52:47.619Z,15.03
2018-09-04T14:55:16.612Z,15.53
2018-09-04T14:57:45.992Z,13.80
2018-09-04T15:00:15.546Z,13.60
2018-09-04T15:02:44.022Z,13.43
2018-09-04T15:05:12.535Z,13.03
2018-09-04T15:07:41.840Z,12.67
2018-09-04T15:10:11.225Z,12.47
2018-09-04T15:12:39.982Z,12.03
2018-09-04T15:15:09.123Z,11.90
2018-09-04T15:17:37.931Z,11.70
2018-09-04T15:20:07.388Z,12.50
2018-09-04T15:22:40.393Z,14.97
2018-09-04T15:25:09.753Z,13.27
2018-09-04T15:27:38.581Z,12.93
2018-09-04T15:30:07.238Z,11.60
2018-09-04T15:32:36.173Z,12.40
2018-09-04T15:35:05.112Z,11.30
2018-09-04T15:37:35.088Z,12.20
2018-09-04T15:40:04.148Z,11.70
2018-09-04T15:42:33.533Z,12.47
2018-09-04T15:45:02.921Z,11.77
2018-09-04T15:47:32.347Z,11.77
2018-09-04T15:50:00.857Z,14.25
2018-09-04T15:52:29.567Z,13.77
2018-09-04T15:54:58.690Z,12.80
2018-09-04T15:57:27.622Z,12.27
2018-09-04T15:59:56.666Z,12.50
2018-09-04T16:02:25.384Z,12.40
2018-09-04T16:04:54.247Z,13.22
2018-09-04T16:07:24.663Z,13.90
2018-09-04T16:09:54.147Z,14.47
2018-09-04T16:12:22.771Z,14.07
2018-09-04T16:14:52.622Z,13.53
2018-09-04T16:17:21.409Z,14.87
2018-09-04T16:19:50.209Z,14.10
2018-09-04T16:22:19.255Z,14.20
2018-09-04T16:24:48.009Z,13.77
2018-09-04T16:27:18.842Z,14.87
2018-09-04T16:29:48.678Z,14.53
2018-09-04T16:32:17.162Z,13.43
2018-09-04T16:34:45.685Z,13.53
2018-09-04T16:37:14.163Z,18.27
2018-09-04T16:39:42.676Z,15.87
2018-09-04T16:42:11.157Z,16.43
2018-09-04T16:44:40.944Z,16.67
2018-09-04T16:47:09.427Z,15.90
2018-09-04T16:49:37.968Z,17.33
2018-09-04T16:52:06.623Z,15.37
2018-09-04T16:54:36.717Z,16.33
2018-09-04T16:57:05.624Z,16.50
2018-09-04T16:59:35.100Z,16.03
2018-09-04T17:02:07.479Z,16.00
2018-09-04T17:04:36.315Z,17.80
2018-09-04T17:07:05.717Z,16.27
2018-09-04T17:09:34.243Z,17.27
2018-09-04T17:12:02.740Z,19.63
2018-09-04T17:14:32.469Z,18.77
2018-09-04T17:17:00.981Z,16.93
2018-09-04T17:19:30.885Z,17.03
2018-09-04T17:22:00.557Z,19.80
2018-09-04T17:24:29.685Z,15.27
2018-09-04T17:26:58.212Z,14.90
2018-09-04T17:29:27.362Z,18.53
2018-09-04T17:31:58.318Z,15.83
2018-09-04T17:34:28.427Z,15.57
2018-09-04T17:36:57.545Z,14.80
2018-09-04T17:39:26.072Z,17.50
2018-09-04T17:41:54.957Z,15.43
2018-09-04T17:44:24.680Z,15.90
2018-09-04T17:46:53.437Z,14.57
2018-09-04T17:49:21.906Z,17.60
2018-09-04T17:51:50.437Z,14.07
2018-09-04T17:54:19.745Z,12.80
2018-09-04T17:56:49.296Z,13.00
2018-09-04T17:59:17.784Z,11.67
2018-09-04T18:01:46.645Z,13.63
2018-09-04T18:04:17.005Z,12.00
2018-09-04T18:06:45.527Z,11.87
2018-09-04T18:09:15.487Z,11.43
2018-09-04T18:11:45.211Z,10.37
2018-09-04T18:14:14.122Z,9.90
2018-09-04T18:16:42.677Z,11.97
2018-09-04T18:19:11.173Z,10.87
2018-09-04T18:21:40.020Z,11.67
2018-09-04T18:24:09.341Z,10.50
2018-09-04T18:26:38.013Z,10.30
2018-09-04T18:29:07.081Z,11.33
2018-09-04T18:31:35.588Z,10.43
2018-09-04T18:34:04.070Z,11.57
2018-09-04T18:36:32.941Z,12.70
2018-09-04T18:39:01.416Z,10.00
2018-09-04T18:41:30.644Z,12.67
2018-09-04T18:44:00.116Z,12.90
2018-09-04T18:46:28.675Z,11.63
2018-09-04T18:48:57.289Z,12.67
2018-09-04T18:51:26.507Z,13.67
2018-09-04T18:53:56.940Z,16.13
2018-09-04T18:56:26.009Z,14.20
2018-09-04T18:58:54.804Z,14.07
2018-09-04T19:01:23.328Z,13.93
2018-09-04T19:03:52.129Z,13.50
2018-09-04T19:06:21.256Z,14.30
2018-09-04T19:08:49.735Z,15.67
2018-09-04T19:11:18.528Z,15.03
2018-09-04T19:13:47.037Z,15.33
2018-09-04T19:16:15.542Z,15.60
2018-09-04T19:18:44.330Z,15.40
2018-09-04T19:21:12.865Z,15.67
2018-09-04T19:23:41.838Z,15.87
2018-09-04T19:26:10.308Z,15.33
2018-09-04T19:28:39.563Z,15.17
2018-09-04T19:31:08.257Z,16.07
2018-09-04T19:33:37.681Z,14.57
2018-09-04T19:36:06.129Z,16.80
2018-09-04T19:38:34.604Z,16.53
2018-09-04T19:41:03.067Z,16.80
2018-09-04T19:43:32.012Z,15.10
2018-09-04T19:46:01.228Z,15.40
2018-09-04T19:48:30.361Z,15.40
2018-09-04T19:50:59.350Z,15.40
2018-09-04T19:53:27.849Z,16.03
2018-09-04T19:55:57.196Z,16.00
2018-09-04T19:58:26.252Z,15.70
2018-09-04T20:00:55.012Z,19.40
2018-09-04T20:03:23.707Z,15.37
2018-09-04T20:05:52.173Z,14.77
2018-09-04T20:08:21.667Z,16.77
2018-09-04T20:10:50.472Z,16.53
2018-09-04T20:13:19.751Z,16.83
2018-09-04T20:15:48.373Z,14.10
2018-09-04T20:18:16.916Z,16.00
2018-09-04T20:20:45.604Z,15.60
2018-09-04T20:23:14.130Z,14.97
2018-09-04T20:25:43.359Z,12.97
2018-09-04T20:28:12.101Z,14.23
2018-09-04T20:30:40.552Z,14.63
2018-09-04T20:33:09.032Z,15.13
2018-09-04T20:35:37.520Z,14.90
2018-09-04T20:38:06.148Z,15.73
2018-09-04T20:40:35.169Z,15.70
2018-09-04T20:43:04.088Z,16.97
2018-09-04T20:45:32.545Z,16.60
2018-09-04T20:48:01.265Z,13.80
2018-09-04T20:50:32.285Z,13.87
2018-09-04T20:53:00.762Z,15.63
2018-09-04T20:55:30.208Z,13.97
2018-09-04T20:58:09.886Z,18.30
2018-09-04T21:00:49.782Z,15.57
2018-09-04T21:03:29.424Z,16.13
2018-09-04T21:06:09.622Z,16.03
2018-09-04T21:08:52.170Z,15.50
2018-09-04T21:11:21.060Z,14.20
2018-09-04T21:13:49.560Z,16.53
2018-09-04T21:16:18.532Z,16.90
2018-09-04T21:18:47.013Z,17.13
2018-09-04T21:21:15.480Z,15.03
2018-09-04T21:23:44.937Z,18.43
2018-09-04T21:26:13.848Z,15.20
2018-09-04T21:28:43.600Z,16.23
2018-09-04T21:31:12.699Z,15.90
2018-09-04T21:33:42.114Z,16.37
2018-09-04T21:36:10.927Z,17.67
2018-09-04T21:38:39.616Z,15.37
2018-09-04T21:41:08.107Z,17.10
2018-09-04T21:43:36.565Z,18.57
2018-09-04T21:46:05.266Z,17.43
2018-09-04T21:48:34.112Z,14.70
2018-09-04T21:51:03.478Z,16.03
2018-09-04T21:53:32.268Z,17.97
2018-09-04T21:56:00.738Z,17.70
2018-09-04T21:58:29.269Z,16.47
2018-09-04T22:00:58.688Z,16.60
2018-09-04T22:03:28.653Z,17.20
2018-09-04T22:05:57.849Z,20.33
2018-09-04T22:08:26.324Z,18.47
2018-09-04T22:10:55.053Z,16.27
2018-09-04T22:13:23.546Z,16.27
2018-09-04T22:15:52.087Z,16.57
2018-09-04T22:18:21.210Z,19.17
2018-09-04T22:20:50.126Z,19.03
2018-09-04T22:23:19.440Z,18.37
2018-09-04T22:25:47.936Z,20.33
2018-09-04T22:28:16.426Z,20.23
2018-09-04T22:30:44.954Z,18.77
2018-09-04T22:33:15.521Z,18.17
2018-09-04T22:35:44.071Z,19.40
2018-09-04T22:38:12.556Z,20.43
2018-09-04T22:40:41.635Z,16.20
2018-09-04T22:43:10.185Z,15.23
2018-09-04T22:45:38.681Z,17.37
2018-09-04T22:48:07.188Z,15.87
2018-09-04T22:50:40.968Z,16.53
2018-09-04T22:53:09.456Z,15.00
2018-09-04T22:55:37.962Z,16.07
2018-09-04T22:58:06.498Z,16.40
2018-09-04T23:00:36.496Z,20.93
2018-09-04T23:03:04.998Z,18.07
2018-09-04T23:05:33.497Z,19.73
2018-09-04T23:08:02.827Z,22.40
2018-09-04T23:10:31.761Z,23.87
2018-09-04T23:13:02.422Z,26.33
2018-09-04T23:15:30.910Z,22.03
2018-09-04T23:17:59.386Z,18.97
2018-09-04T23:20:28.348Z,22.37
2018-09-04T23:22:56.785Z,18.37
2018-09-04T23:25:25.613Z,18.40
2018-09-04T23:27:54.306Z,20.83
2018-09-04T23:30:23.087Z,19.60
2018-09-04T23:32:51.833Z,18.53
2018-09-04T23:35:20.713Z,20.07
2018-09-04T23:37:49.158Z,24.37
2018-09-04T23:40:17.693Z,21.17
2018-09-04T23:42:46.542Z,24.10
2018-09-04T23:45:15.058Z,21.43
2018-09-04T23:47:44.590Z,20.83
2018-09-04T23:50:13.596Z,21.70
2018-09-04T23:52:42.836Z,19.50
2018-09-04T23:55:11.324Z,22.17
2018-09-04T23:57:40.209Z,21.47
